createdAt,value
2022-11-30T00:00:51.518Z,38.90
2022-11-30T00:03:20.581Z,38.30
2022-11-30T00:05:48.892Z,38.00
2022-11-30T00:08:16.811Z,38.85
2022-11-30T00:10:44.753Z,41.05
2022-11-30T00:13:12.319Z,36.75
2022-11-30T00:15:39.951Z,37.65
2022-11-30T00:18:09.050Z,38.63
2022-11-30T00:20:36.608Z,42.50
2022-11-30T00:23:04.345Z,38.17
2022-11-30T00:25:31.898Z,38.45
2022-11-30T00:28:01.472Z,37.33
2022-11-30T00:30:29.322Z,37.38
2022-11-30T00:32:58.021Z,33.97
2022-11-30T00:35:25.618Z,39.28
2022-11-30T00:37:53.191Z,37.72
2022-11-30T00:40:20.802Z,36.70
2022-11-30T00:42:48.407Z,37.25
2022-11-30T00:45:15.982Z,35.92
2022-11-30T00:47:43.561Z,39.60
2022-11-30T00:50:11.422Z,35.85
2022-11-30T00:52:39.962Z,38.22
2022-11-30T00:55:07.901Z,35.33
2022-11-30T00:57:35.448Z,36.40
2022-11-30T01:00:02.987Z,36.38
2022-11-30T01:02:30.542Z,38.17
2022-11-30T01:04:58.142Z,35.67
2022-11-30T01:07:25.720Z,36.03
2022-11-30T01:09:53.303Z,36.45
2022-11-30T01:12:20.886Z,36.45
2022-11-30T01:14:48.720Z,38.03
2022-11-30T01:17:16.519Z,39.20
2022-11-30T01:19:44.154Z,36.10
2022-11-30T01:22:11.755Z,34.35
2022-11-30T01:24:39.294Z,36.22
2022-11-30T01:27:06.861Z,37.97
2022-11-30T01:29:34.430Z,35.92
2022-11-30T01:32:02.059Z,36.35
2022-11-30T01:34:29.641Z,37.63
2022-11-30T01:36:57.171Z,36.78
2022-11-30T01:39:24.750Z,38.72
2022-11-30T01:41:54.714Z,38.88
2022-11-30T01:44:26.552Z,40.95
2022-11-30T01:49:32.156Z,36.97
2022-11-30T01:52:09.511Z,43.05
2022-11-30T01:54:39.498Z,41.00
2022-11-30T01:57:13.683Z,44.10
2022-11-30T01:59:41.444Z,41.10
2022-11-30T02:02:10.290Z,42.08
2022-11-30T02:04:39.145Z,45.00
2022-11-30T02:07:08.263Z,41.83
2022-11-30T02:09:43.540Z,42.20
2022-11-30T02:12:31.339Z,43.95
2022-11-30T02:15:00.772Z,37.17
2022-11-30T02:17:43.678Z,42.60
2022-11-30T02:20:17.227Z,41.20
2022-11-30T02:23:03.987Z,40.03
2022-11-30T02:25:34.319Z,37.85
2022-11-30T02:28:04.646Z,42.22
2022-11-30T02:30:34.688Z,43.70
2022-11-30T02:33:05.717Z,40.17
2022-11-30T02:35:35.453Z,42.47
2022-11-30T02:38:04.805Z,42.70
2022-11-30T02:40:32.847Z,43.35
2022-11-30T02:43:02.753Z,39.50
2022-11-30T02:45:32.202Z,45.47
2022-11-30T02:48:02.601Z,45.92
2022-11-30T02:50:34.077Z,40.65
2022-11-30T02:53:01.746Z,41.67
2022-11-30T02:55:31.824Z,40.63
2022-11-30T02:57:59.384Z,42.47
2022-11-30T03:00:28.189Z,39.53
2022-11-30T03:02:55.922Z,34.67
2022-11-30T03:05:23.501Z,40.20
2022-11-30T03:07:51.089Z,42.28
2022-11-30T03:10:18.759Z,40.42
2022-11-30T03:12:46.293Z,37.72
2022-11-30T03:15:13.843Z,36.97
2022-11-30T03:17:41.403Z,37.72
2022-11-30T03:20:10.280Z,36.88
2022-11-30T03:22:37.882Z,39.80
2022-11-30T03:25:05.578Z,37.17
2022-11-30T03:27:33.139Z,33.80
2022-11-30T03:30:00.730Z,39.00
2022-11-30T03:32:28.647Z,32.97
2022-11-30T03:34:57.359Z,36.92
2022-11-30T03:37:24.896Z,34.15
2022-11-30T03:39:57.780Z,35.83
2022-11-30T03:42:25.885Z,33.20
2022-11-30T03:44:53.402Z,38.83
2022-11-30T03:47:20.959Z,36.55
2022-11-30T03:49:48.559Z,41.70
2022-11-30T03:52:16.097Z,40.13
2022-11-30T03:54:44.911Z,40.33
2022-11-30T03:57:12.776Z,40.58
2022-11-30T03:59:40.304Z,40.17
2022-11-30T04:02:07.977Z,40.17
2022-11-30T04:04:35.619Z,41.35
2022-11-30T04:07:03.178Z,40.88
2022-11-30T04:09:31.066Z,35.08
2022-11-30T04:11:58.978Z,39.80
2022-11-30T04:14:26.574Z,32.25
2022-11-30T04:16:54.124Z,33.13
2022-11-30T04:19:21.658Z,33.60
2022-11-30T04:21:49.386Z,36.35
2022-11-30T04:24:16.978Z,31.27
2022-11-30T04:26:45.921Z,25.88
2022-11-30T04:29:13.709Z,27.67
2022-11-30T04:31:41.316Z,29.98
2022-11-30T04:34:08.896Z,25.98
2022-11-30T04:36:36.503Z,29.00
2022-11-30T04:39:04.135Z,30.13
2022-11-30T04:41:31.813Z,30.55
2022-11-30T04:43:59.373Z,30.55
2022-11-30T04:46:26.997Z,29.45
2022-11-30T04:48:54.620Z,29.65
2022-11-30T04:51:22.246Z,25.92
2022-11-30T04:53:49.770Z,30.30
2022-11-30T04:56:17.335Z,32.10
2022-11-30T04:58:44.887Z,33.08
2022-11-30T05:01:13.454Z,32.92
2022-11-30T05:03:41.011Z,33.05
2022-11-30T05:06:08.594Z,35.55
2022-11-30T05:08:36.225Z,30.55
2022-11-30T05:11:03.788Z,38.03
2022-11-30T05:13:31.319Z,34.80
2022-11-30T05:15:59.014Z,34.03
2022-11-30T05:18:26.682Z,28.08
2022-11-30T05:20:54.354Z,27.95
2022-11-30T05:23:22.374Z,29.23
2022-11-30T05:25:51.925Z,27.48
2022-11-30T05:28:19.692Z,31.08
2022-11-30T05:30:47.290Z,30.67
2022-11-30T05:33:14.960Z,33.97
2022-11-30T05:35:42.492Z,31.35
2022-11-30T05:38:10.078Z,28.85
2022-11-30T05:40:37.646Z,30.35
2022-11-30T05:43:05.942Z,26.42
2022-11-30T05:45:33.487Z,27.10
2022-11-30T05:48:01.077Z,25.02
2022-11-30T05:50:28.703Z,24.55
2022-11-30T05:52:56.859Z,23.23
2022-11-30T05:55:28.694Z,27.05
2022-11-30T06:00:23.770Z,25.10
2022-11-30T06:02:56.814Z,26.65
2022-11-30T06:05:24.566Z,27.88
2022-11-30T06:07:52.187Z,28.20
2022-11-30T06:10:20.038Z,26.25
2022-11-30T06:12:48.585Z,28.63
2022-11-30T06:15:16.248Z,27.65
2022-11-30T06:17:43.801Z,26.92
2022-11-30T06:20:11.492Z,23.77
2022-11-30T06:22:39.087Z,27.75
2022-11-30T06:25:06.761Z,26.27
2022-11-30T06:27:34.335Z,23.83
2022-11-30T06:30:01.934Z,25.45
2022-11-30T06:32:29.480Z,26.80
2022-11-30T06:34:57.070Z,26.42
2022-11-30T06:37:24.862Z,26.10
2022-11-30T06:40:06.474Z,23.33
2022-11-30T06:42:36.316Z,25.38
2022-11-30T06:45:04.511Z,24.80
2022-11-30T06:47:32.110Z,24.55
2022-11-30T06:49:59.695Z,25.88
2022-11-30T06:52:27.361Z,25.90
2022-11-30T06:54:54.921Z,21.55
2022-11-30T06:57:26.566Z,22.58
2022-11-30T06:59:54.183Z,26.45
2022-11-30T07:02:21.738Z,24.30
2022-11-30T07:04:49.692Z,25.50
2022-11-30T07:07:17.524Z,26.63
2022-11-30T07:09:45.140Z,23.42
2022-11-30T07:12:12.839Z,23.52
2022-11-30T07:14:40.429Z,21.85
2022-11-30T07:17:08.126Z,27.38
2022-11-30T07:19:35.724Z,22.58
2022-11-30T07:22:03.492Z,23.38
2022-11-30T07:24:50.227Z,25.55
2022-11-30T07:27:18.032Z,20.67
2022-11-30T07:29:48.546Z,22.35
2022-11-30T07:32:16.064Z,22.95
2022-11-30T07:34:43.625Z,22.40
2022-11-30T07:37:11.514Z,25.92
2022-11-30T07:39:39.171Z,23.25
2022-11-30T07:42:06.695Z,27.88
2022-11-30T07:44:34.277Z,26.85
2022-11-30T07:47:01.888Z,27.35
2022-11-30T07:49:29.607Z,24.88
2022-11-30T07:51:57.172Z,29.98
2022-11-30T07:54:24.830Z,27.10
2022-11-30T07:56:52.445Z,27.17
2022-11-30T07:59:20.057Z,29.52
2022-11-30T08:01:47.785Z,30.20
2022-11-30T08:04:15.622Z,28.80
2022-11-30T08:06:43.395Z,31.27
2022-11-30T08:09:19.234Z,29.52
2022-11-30T08:11:49.791Z,31.17
2022-11-30T08:14:17.570Z,30.73
2022-11-30T08:16:45.278Z,29.77
2022-11-30T08:19:13.157Z,29.48
2022-11-30T08:21:40.722Z,29.42
2022-11-30T08:24:13.667Z,31.35
2022-11-30T08:26:41.355Z,29.60
2022-11-30T08:29:11.485Z,28.30
2022-11-30T08:31:40.216Z,30.35
2022-11-30T08:34:09.070Z,26.90
2022-11-30T08:36:36.744Z,31.08
2022-11-30T08:39:05.494Z,30.23
2022-11-30T08:41:34.710Z,28.60
2022-11-30T08:44:02.463Z,27.50
2022-11-30T08:49:23.405Z,29.55
2022-11-30T08:54:42.287Z,26.77
2022-11-30T08:57:09.917Z,29.85
2022-11-30T08:59:37.579Z,28.35
2022-11-30T09:02:05.571Z,29.98
2022-11-30T09:04:33.152Z,29.40
2022-11-30T09:07:00.935Z,28.02
2022-11-30T09:09:29.422Z,29.23
2022-11-30T09:11:57.031Z,28.45
2022-11-30T09:14:24.565Z,29.75
2022-11-30T09:16:53.485Z,26.70
2022-11-30T09:19:21.021Z,30.88
2022-11-30T09:21:51.851Z,29.13
2022-11-30T09:24:20.778Z,20.67
2022-11-30T09:26:48.707Z,28.50
2022-11-30T09:29:16.352Z,27.33
2022-11-30T09:31:44.035Z,27.58
2022-11-30T09:34:12.140Z,24.67
2022-11-30T09:36:40.681Z,24.15
2022-11-30T09:39:15.230Z,28.25
2022-11-30T09:42:03.884Z,25.58
2022-11-30T09:44:44.877Z,27.27
2022-11-30T09:47:18.519Z,26.20
2022-11-30T09:49:48.873Z,28.92
2022-11-30T09:52:38.101Z,25.52
2022-11-30T09:55:10.246Z,23.95
2022-11-30T09:57:40.782Z,27.13
2022-11-30T10:00:15.025Z,25.55
2022-11-30T10:02:43.121Z,24.83
2022-11-30T10:05:14.973Z,25.80
2022-11-30T10:08:02.952Z,22.92
2022-11-30T10:10:56.836Z,24.80
2022-11-30T10:13:43.266Z,24.70
2022-11-30T10:16:22.754Z,20.45
2022-11-30T10:18:53.503Z,22.98
2022-11-30T10:21:40.250Z,21.90
2022-11-30T10:24:17.398Z,23.85
2022-11-30T10:26:55.431Z,22.33
2022-11-30T10:29:35.594Z,24.58
2022-11-30T10:32:16.597Z,23.23
2022-11-30T10:34:45.431Z,22.80
2022-11-30T10:37:18.091Z,22.55
2022-11-30T10:39:57.996Z,20.83
2022-11-30T10:42:28.735Z,21.70
2022-11-30T10:45:01.372Z,22.77
2022-11-30T10:47:38.972Z,20.55
2022-11-30T10:50:08.015Z,20.92
2022-11-30T10:52:42.881Z,22.80
2022-11-30T10:55:30.769Z,23.95
2022-11-30T10:58:07.984Z,20.73
2022-11-30T11:00:37.073Z,19.38
2022-11-30T11:03:22.739Z,19.35
2022-11-30T11:06:03.621Z,17.95
2022-11-30T11:08:31.580Z,17.30
2022-11-30T11:10:59.439Z,16.27
2022-11-30T11:13:40.113Z,15.63
2022-11-30T11:16:12.150Z,16.75
2022-11-30T11:18:53.788Z,18.05
2022-11-30T11:21:22.839Z,16.85
2022-11-30T11:23:54.874Z,14.32
2022-11-30T11:26:22.598Z,13.02
2022-11-30T11:28:51.546Z,17.42
2022-11-30T11:31:21.971Z,12.85
2022-11-30T11:33:54.903Z,11.52
2022-11-30T11:36:27.005Z,11.75
2022-11-30T11:38:54.899Z,9.63
2022-11-30T11:41:22.490Z,10.35
2022-11-30T11:43:58.891Z,11.93
2022-11-30T11:46:26.460Z,9.80
2022-11-30T11:49:08.138Z,9.68
2022-11-30T11:51:37.036Z,15.35
2022-11-30T11:54:13.795Z,17.05
2022-11-30T11:56:41.962Z,18.75
2022-11-30T11:59:18.639Z,19.67
2022-11-30T12:02:18.967Z,20.27
2022-11-30T12:04:49.022Z,20.40
2022-11-30T12:07:34.814Z,21.65
2022-11-30T12:13:22.196Z,18.95
2022-11-30T12:15:49.816Z,20.02
2022-11-30T12:18:24.545Z,18.40
2022-11-30T12:20:57.382Z,19.40
2022-11-30T12:23:39.878Z,23.25
2022-11-30T12:26:28.061Z,18.60
2022-11-30T12:29:08.026Z,20.20
2022-11-30T12:31:50.770Z,16.17
2022-11-30T12:34:21.134Z,17.70
2022-11-30T12:36:57.815Z,16.63
2022-11-30T12:39:25.747Z,17.13
2022-11-30T12:42:01.638Z,20.40
2022-11-30T12:44:29.224Z,17.48
2022-11-30T12:47:20.286Z,21.52
2022-11-30T12:49:53.771Z,18.92
2022-11-30T12:52:28.118Z,21.27
2022-11-30T12:55:17.188Z,23.13
2022-11-30T12:57:50.261Z,24.30
2022-11-30T13:00:21.185Z,25.63
2022-11-30T13:03:07.301Z,24.48
2022-11-30T13:05:38.298Z,24.13
2022-11-30T13:08:16.017Z,25.43
2022-11-30T13:10:43.657Z,23.42
2022-11-30T13:13:16.985Z,24.27
2022-11-30T13:15:45.316Z,23.67
2022-11-30T13:18:18.965Z,20.33
2022-11-30T13:20:49.459Z,20.33
2022-11-30T13:23:23.220Z,18.88
2022-11-30T13:26:13.265Z,21.00
2022-11-30T13:28:43.770Z,20.05
2022-11-30T13:31:15.598Z,21.63
2022-11-30T13:36:46.149Z,17.83
2022-11-30T13:39:16.592Z,19.27
2022-11-30T13:41:51.337Z,18.95
2022-11-30T13:44:38.552Z,16.00
2022-11-30T13:47:10.927Z,17.73
2022-11-30T13:49:38.543Z,17.13
2022-11-30T13:52:22.664Z,16.15
2022-11-30T13:54:53.788Z,18.48
2022-11-30T13:57:30.460Z,16.15
2022-11-30T13:59:59.082Z,16.02
2022-11-30T14:05:18.615Z,19.58
2022-11-30T14:08:02.913Z,19.50
2022-11-30T14:10:44.535Z,23.10
2022-11-30T14:13:13.436Z,21.75
2022-11-30T14:15:42.150Z,24.90
2022-11-30T14:18:09.794Z,26.73
2022-11-30T14:20:39.967Z,25.02
2022-11-30T14:23:08.764Z,26.38
2022-11-30T14:25:37.777Z,23.42
2022-11-30T14:28:06.123Z,24.83
2022-11-30T14:30:34.858Z,22.45
2022-11-30T14:33:05.662Z,22.85
2022-11-30T14:35:34.002Z,23.88
2022-11-30T14:38:03.481Z,27.00
2022-11-30T14:40:32.296Z,28.60
2022-11-30T14:43:01.487Z,29.70
2022-11-30T14:45:30.898Z,29.98
2022-11-30T14:48:15.618Z,28.08
2022-11-30T14:50:46.268Z,30.48
2022-11-30T14:53:34.798Z,26.40
2022-11-30T14:56:09.451Z,28.98
2022-11-30T14:58:44.491Z,30.77
2022-11-30T15:01:19.916Z,30.55
2022-11-30T15:03:48.847Z,30.13
2022-11-30T15:06:18.358Z,27.92
2022-11-30T15:08:48.508Z,30.73
2022-11-30T15:11:17.154Z,31.77
2022-11-30T15:13:47.134Z,30.02
2022-11-30T15:16:33.041Z,29.38
2022-11-30T15:19:00.948Z,31.23
2022-11-30T15:21:29.854Z,35.33
2022-11-30T15:23:58.738Z,30.38
2022-11-30T15:26:30.244Z,31.23
2022-11-30T15:29:18.324Z,35.15
2022-11-30T15:31:49.779Z,30.08
2022-11-30T15:34:36.784Z,28.20
2022-11-30T15:37:04.828Z,28.02
2022-11-30T15:39:33.070Z,27.85
2022-11-30T15:42:01.974Z,34.15
2022-11-30T15:44:40.325Z,27.05
2022-11-30T15:47:23.478Z,26.98
2022-11-30T15:49:52.874Z,28.48
2022-11-30T15:52:20.925Z,28.85
2022-11-30T15:54:55.235Z,32.10
2022-11-30T15:57:24.283Z,36.83
2022-11-30T16:00:30.534Z,28.98
2022-11-30T16:03:10.951Z,30.23
2022-11-30T16:05:39.638Z,30.25
2022-11-30T16:08:15.118Z,32.70
2022-11-30T16:10:43.835Z,27.95
2022-11-30T16:13:19.627Z,29.13
2022-11-30T16:15:48.673Z,29.23
2022-11-30T16:18:18.949Z,29.80
2022-11-30T16:20:48.269Z,31.10
2022-11-30T16:23:16.603Z,30.13
2022-11-30T16:25:45.022Z,28.48
2022-11-30T16:28:13.879Z,29.80
2022-11-30T16:30:42.192Z,29.52
2022-11-30T16:33:14.685Z,29.85
2022-11-30T16:36:06.429Z,30.52
2022-11-30T16:38:34.175Z,30.25
2022-11-30T16:41:13.703Z,26.60
2022-11-30T16:43:41.842Z,30.75
2022-11-30T16:46:11.039Z,31.30
2022-11-30T16:48:38.745Z,28.17
2022-11-30T16:51:06.931Z,30.05
2022-11-30T16:53:34.501Z,32.33
2022-11-30T16:56:02.076Z,30.50
2022-11-30T16:58:29.717Z,33.70
2022-11-30T17:01:00.166Z,29.23
2022-11-30T17:03:30.571Z,28.65
2022-11-30T17:05:58.265Z,32.63
2022-11-30T17:08:26.019Z,32.60
2022-11-30T17:10:54.647Z,30.33
2022-11-30T17:13:22.515Z,29.02
2022-11-30T17:15:50.259Z,28.70
2022-11-30T17:18:17.998Z,31.15
2022-11-30T17:20:45.748Z,34.78
2022-11-30T17:23:14.553Z,28.35
2022-11-30T17:25:42.653Z,29.55
2022-11-30T17:28:10.494Z,29.67
2022-11-30T17:30:38.408Z,28.08
2022-11-30T17:33:06.243Z,29.90
2022-11-30T17:35:34.064Z,27.45
2022-11-30T17:38:01.794Z,31.80
2022-11-30T17:40:29.381Z,28.50
2022-11-30T17:42:56.980Z,29.85
2022-11-30T17:45:24.729Z,31.75
2022-11-30T17:47:52.475Z,30.30
2022-11-30T17:50:20.176Z,29.73
2022-11-30T17:52:48.007Z,29.10
2022-11-30T17:55:15.582Z,29.60
2022-11-30T17:57:43.685Z,27.35
2022-11-30T18:00:11.691Z,29.38
2022-11-30T18:02:39.419Z,27.15
2022-11-30T18:05:07.398Z,31.05
2022-11-30T18:07:35.258Z,30.05
2022-11-30T18:10:03.269Z,28.77
2022-11-30T18:12:30.896Z,29.38
2022-11-30T18:14:58.722Z,30.25
2022-11-30T18:17:26.286Z,26.65
2022-11-30T18:19:54.512Z,28.13
2022-11-30T18:22:22.066Z,30.38
2022-11-30T18:24:49.938Z,31.17
2022-11-30T18:27:18.010Z,28.25
2022-11-30T18:29:45.671Z,28.10
2022-11-30T18:32:13.333Z,33.10
2022-11-30T18:34:41.097Z,28.60
2022-11-30T18:37:08.694Z,30.15
2022-11-30T18:39:36.409Z,30.50
2022-11-30T18:42:04.048Z,32.85
2022-11-30T18:44:31.684Z,28.48
2022-11-30T18:46:59.308Z,37.13
2022-11-30T18:49:26.913Z,38.47
2022-11-30T18:51:54.503Z,36.17
2022-11-30T18:54:22.387Z,32.72
2022-11-30T18:56:49.977Z,39.55
2022-11-30T18:59:18.037Z,38.58
2022-11-30T19:01:46.451Z,33.30
2022-11-30T19:04:14.514Z,36.92
2022-11-30T19:06:42.811Z,39.95
2022-11-30T19:09:11.894Z,37.35
2022-11-30T19:11:40.067Z,38.45
2022-11-30T19:14:07.718Z,37.47
2022-11-30T19:16:35.838Z,41.67
2022-11-30T19:19:05.657Z,37.90
2022-11-30T19:21:33.783Z,38.30
2022-11-30T19:24:01.754Z,39.00
2022-11-30T19:26:29.538Z,41.75
2022-11-30T19:28:57.815Z,38.47
2022-11-30T19:31:25.537Z,37.45
2022-11-30T19:33:54.511Z,36.25
2022-11-30T19:36:23.976Z,32.95
2022-11-30T19:38:51.733Z,35.90
2022-11-30T19:41:20.133Z,38.60
2022-11-30T19:43:54.807Z,36.03
2022-11-30T19:46:24.694Z,37.00
2022-11-30T19:48:57.090Z,34.78
2022-11-30T19:51:24.922Z,35.22
2022-11-30T19:53:55.612Z,37.65
2022-11-30T19:56:24.919Z,39.15
2022-11-30T19:58:52.648Z,33.95
2022-11-30T20:01:24.422Z,36.05
2022-11-30T20:06:19.670Z,36.35
2022-11-30T20:08:47.280Z,37.33
2022-11-30T20:11:15.812Z,39.38
2022-11-30T20:13:46.560Z,37.78
2022-11-30T20:16:15.272Z,37.05
2022-11-30T20:18:46.219Z,38.17
2022-11-30T20:21:22.103Z,38.78
2022-11-30T20:23:50.220Z,37.13
2022-11-30T20:26:18.038Z,39.83
2022-11-30T20:28:46.183Z,38.75
2022-11-30T20:31:14.999Z,37.58
2022-11-30T20:33:43.271Z,39.63
2022-11-30T20:36:11.625Z,38.80
2022-11-30T20:38:39.489Z,40.05
2022-11-30T20:41:10.252Z,39.30
2022-11-30T20:43:37.952Z,39.72
2022-11-30T20:46:19.389Z,39.55
2022-11-30T20:48:47.346Z,39.70
2022-11-30T20:51:32.820Z,37.75
2022-11-30T20:54:02.159Z,36.72
2022-11-30T20:56:30.016Z,37.53
2022-11-30T20:59:00.843Z,38.78
2022-11-30T21:01:28.743Z,38.47
2022-11-30T21:03:56.434Z,39.38
2022-11-30T21:06:24.191Z,37.53
2022-11-30T21:08:51.842Z,40.65
2022-11-30T21:11:20.739Z,38.65
2022-11-30T21:13:49.501Z,38.10
2022-11-30T21:16:22.487Z,43.38
2022-11-30T21:18:53.392Z,42.22
2022-11-30T21:21:22.766Z,39.28
2022-11-30T21:23:50.863Z,40.65
2022-11-30T21:26:19.935Z,44.35
2022-11-30T21:28:48.428Z,42.30
2022-11-30T21:31:16.353Z,41.50
2022-11-30T21:33:50.475Z,44.20
2022-11-30T21:36:20.787Z,42.00
2022-11-30T21:38:48.487Z,45.03
2022-11-30T21:41:16.056Z,45.60
2022-11-30T21:43:43.669Z,44.80
2022-11-30T21:46:13.019Z,42.20
2022-11-30T21:48:41.517Z,45.08
2022-11-30T21:51:10.142Z,47.35
2022-11-30T21:53:39.656Z,44.95
2022-11-30T21:56:08.589Z,39.83
2022-11-30T21:58:36.223Z,41.72
2022-11-30T22:01:03.818Z,42.08
2022-11-30T22:03:31.750Z,42.85
2022-11-30T22:06:00.586Z,41.45
2022-11-30T22:08:28.230Z,39.03
2022-11-30T22:10:56.158Z,39.10
2022-11-30T22:13:23.681Z,41.08
2022-11-30T22:15:57.570Z,38.08
2022-11-30T22:18:25.270Z,36.00
2022-11-30T22:20:52.913Z,38.28
2022-11-30T22:23:20.454Z,40.38
2022-11-30T22:25:48.095Z,38.03
2022-11-30T22:28:15.622Z,40.22
2022-11-30T22:30:44.439Z,37.70
2022-11-30T22:33:12.105Z,37.03
2022-11-30T22:35:39.734Z,39.03
2022-11-30T22:38:07.458Z,40.85
2022-11-30T22:40:35.033Z,36.97
2022-11-30T22:43:02.737Z,41.95
2022-11-30T22:45:30.345Z,39.15
2022-11-30T22:47:57.849Z,37.53
2022-11-30T22:50:25.545Z,40.83
2022-11-30T22:53:02.972Z,38.78
2022-11-30T22:55:32.803Z,42.97
2022-11-30T22:58:00.460Z,39.53
2022-11-30T23:00:28.118Z,42.50
2022-11-30T23:02:55.762Z,39.90
2022-11-30T23:05:23.481Z,41.30
2022-11-30T23:07:51.084Z,43.47
2022-11-30T23:10:19.124Z,41.08
2022-11-30T23:13:01.951Z,42.38
2022-11-30T23:15:29.617Z,45.08
2022-11-30T23:17:57.209Z,46.88
2022-11-30T23:20:24.806Z,45.30
2022-11-30T23:22:52.373Z,45.88
2022-11-30T23:25:19.993Z,44.42
2022-11-30T23:27:47.544Z,42.05
2022-11-30T23:30:15.244Z,46.65
2022-11-30T23:32:42.778Z,45.13
2022-11-30T23:35:10.357Z,44.47
2022-11-30T23:37:37.901Z,43.10
2022-11-30T23:40:05.791Z,43.25
2022-11-30T23:42:33.419Z,48.53
2022-11-30T23:45:01.083Z,43.75
2022-11-30T23:47:28.849Z,47.45
2022-11-30T23:49:56.458Z,48.85
2022-11-30T23:52:24.010Z,51.47
2022-11-30T23:54:51.606Z,50.05
2022-11-30T23:57:19.210Z,46.00
2022-11-30T23:59:47.205Z,47.40
